Time;durP1;ratioP1;P1;durP2;ratioP2;P2;SDS_P1;SDS_P2;PMS_P1;PMS_P2;Temp;Humidity;BMP_temperature;BMP_pressure;BME280_temperature;BME280_humidity;BME280_pressure;Samples;Min_cycle;Max_cycle;Signal;HPM_P1;HPM_P2
2022/02/09 00:04:59;;;;;;;;;37.00;29.25;;;;;8.11;83.53;102787.53;5052442;28;45869;-70
2022/02/09 00:08:10;;;;;;;;;46.75;34.25;;;;;8.12;83.21;102783.16;5057444;28;45509;-70
2022/02/09 00:10:10;;;;;;;;;45.25;30.00;;;;;8.08;83.26;102782.28;5051661;28;45384;-70
2022/02/09 00:12:46;;;;;;;;;33.75;26.50;;;;;8.06;83.31;102784.03;5055356;28;46646;-70
2022/02/09 00:20:31;;;;;;;;;32.75;25.00;;;;;8.00;83.27;102762.22;5054649;28;45336;-70
2022/02/09 00:36:29;;;;;;;;;25.50;22.00;;;;;7.85;83.76;102755.22;5037125;28;45606;-70
2022/02/09 01:57:17;;;;;;;;;21.50;15.75;;;;;7.00;82.70;102737.59;5053611;28;45661;-70
2022/02/09 01:59:46;;;;;;;;;25.50;18.75;;;;;6.97;83.09;102738.44;5051557;28;45586;-70
2022/02/09 02:02:12;;;;;;;;;22.50;19.25;;;;;6.97;82.69;102741.06;5053176;28;45425;-71
2022/02/09 02:04:39;;;;;;;;;22.75;18.75;;;;;6.94;82.75;102738.44;5056023;28;45288;-70
2022/02/09 02:07:12;;;;;;;;;20.50;16.25;;;;;6.94;82.57;102743.69;5054283;28;45387;-70
2022/02/09 02:09:38;;;;;;;;;22.75;16.00;;;;;6.89;82.33;102734.03;5053172;28;46260;-70
2022/02/09 02:12:13;;;;;;;;;18.50;16.75;;;;;6.87;82.34;102734.03;5051364;28;45376;-70
2022/02/09 02:14:44;;;;;;;;;19.50;16.00;;;;;6.84;82.77;102730.53;5054100;28;45389;-70
2022/02/09 02:17:47;;;;;;;;;18.50;16.50;;;;;6.83;82.77;102724.44;5053416;28;45566;-70
2022/02/09 02:20:13;;;;;;;;;20.00;14.00;;;;;6.83;82.68;102728.78;5049471;28;46528;-70
2022/02/09 02:22:59;;;;;;;;;17.50;15.00;;;;;6.80;83.17;102717.47;5054840;28;45517;-70
2022/02/09 02:28:33;;;;;;;;;19.00;17.00;;;;;6.73;82.92;102720.03;5053182;28;45435;-70
2022/02/09 03:14:17;;;;;;;;;17.25;14.25;;;;;6.55;82.94;102652.91;5030477;28;46035;-70
2022/02/09 03:16:52;;;;;;;;;18.25;16.00;;;;;6.50;83.22;102641.56;5043892;28;45948;-70
2022/02/09 03:22:14;;;;;;;;;21.00;16.25;;;;;6.51;82.89;102638.06;5034714;28;46085;-70
2022/02/09 03:51:33;;;;;;;;;17.50;14.00;;;;;6.11;83.29;102574.34;5051827;28;45471;-70
2022/02/09 03:54:10;;;;;;;;;26.50;15.00;;;;;6.24;82.65;102591.81;5052634;28;45431;-70
2022/02/09 03:59:07;;;;;;;;;18.00;15.75;;;;;6.19;82.91;102583.09;5052361;28;45327;-70
2022/02/09 04:01:36;;;;;;;;;15.75;15.00;;;;;6.17;82.74;102590.06;5052994;28;45404;-70
2022/02/09 04:04:02;;;;;;;;;26.00;19.00;;;;;6.16;82.88;102597.03;5052181;28;45723;-70
2022/02/09 04:06:33;;;;;;;;;18.00;15.25;;;;;6.11;82.58;102583.06;5052537;28;46748;-70
2022/02/09 04:09:00;;;;;;;;;25.75;20.50;;;;;6.06;82.37;102582.19;5050426;28;46533;-71
2022/02/09 04:14:32;;;;;;;;;16.00;13.50;;;;;5.97;82.69;102582.13;5007187;28;45506;-70
2022/02/09 04:38:31;;;;;;;;;24.25;16.00;;;;;5.82;83.05;102576.78;4994729;28;46160;-70
2022/02/09 04:46:14;;;;;;;;;25.25;20.00;;;;;5.77;83.03;102576.75;4998693;28;45588;-70
2022/02/09 05:18:05;;;;;;;;;27.00;21.50;;;;;5.50;82.99;102591.34;5052720;28;45392;-70
2022/02/09 05:28:19;;;;;;;;;19.50;17.00;;;;;5.43;83.33;102599.97;5052761;28;45502;-70
2022/02/09 05:30:51;;;;;;;;;26.25;20.50;;;;;5.42;83.49;102602.56;5053922;28;45329;-70
2022/02/09 05:33:17;;;;;;;;;20.50;17.50;;;;;5.41;83.02;102606.91;5053962;28;45868;-70
2022/02/09 05:35:43;;;;;;;;;17.25;13.75;;;;;5.36;83.47;102600.78;5053224;28;45415;-70
2022/02/09 05:38:09;;;;;;;;;21.25;17.00;;;;;5.37;82.98;102605.13;5054216;28;45544;-70
2022/02/09 05:40:34;;;;;;;;;20.25;16.25;;;;;5.36;83.57;102603.38;5056024;28;45459;-70
2022/02/09 05:43:00;;;;;;;;;19.75;19.75;;;;;5.33;83.62;102605.97;5053781;28;45597;-70
2022/02/09 05:45:31;;;;;;;;;27.75;20.00;;;;;5.33;83.29;102595.56;5053885;28;45392;-70
2022/02/09 05:53:07;;;;;;;;;23.75;17.50;;;;;5.20;83.07;102575.44;5054910;28;45818;-70
2022/02/09 05:55:51;;;;;;;;;19.25;17.75;;;;;5.27;83.69;102587.66;5055829;28;45347;-70
2022/02/09 05:58:35;;;;;;;;;24.00;20.00;;;;;5.27;83.58;102587.66;5054382;28;45306;-70
2022/02/09 06:01:02;;;;;;;;;20.50;15.25;;;;;5.26;83.16;102588.53;5053744;28;45561;-70
2022/02/09 06:03:27;;;;;;;;;17.50;14.00;;;;;5.24;82.97;102593.72;5052367;28;45423;-70
2022/02/09 06:05:53;;;;;;;;;24.00;18.50;;;;;5.21;83.47;102585.88;5052248;28;45488;-70
2022/02/09 06:08:19;;;;;;;;;20.50;18.00;;;;;5.20;83.60;102596.28;5052707;28;45535;-70
2022/02/09 06:10:52;;;;;;;;;25.50;19.25;;;;;5.18;83.43;102595.41;5055798;28;45364;-70
2022/02/09 06:13:44;;;;;;;;;25.50;21.00;;;;;5.17;83.66;102598.88;5053910;28;45921;-70
2022/02/09 06:19:40;;;;;;;;;18.75;16.75;;;;;5.15;83.75;102598.84;5051873;28;45341;-70
2022/02/09 06:21:41;;;;;;;;;22.00;18.50;;;;;5.17;83.85;102604.97;5050911;28;45408;-70
2022/02/09 06:24:07;;;;;;;;;20.75;20.00;;;;;5.16;83.88;102604.94;5053526;28;45491;-70
2022/02/09 06:26:32;;;;;;;;;23.50;19.75;;;;;5.18;83.88;102617.13;5054126;28;45457;-70
2022/02/09 06:28:57;;;;;;;;;23.33;18.00;;;;;5.14;83.66;102602.31;5069558;28;50319;-70
2022/02/09 06:31:22;;;;;;;;;23.67;20.33;;;;;5.15;83.86;102604.06;5070058;28;52760;-70
2022/02/09 06:33:48;;;;;;;;;25.75;16.75;;;;;5.13;83.78;102599.72;5051407;28;45424;-70
2022/02/09 06:36:15;;;;;;;;;27.50;23.50;;;;;5.16;84.12;102604.94;5053499;28;45475;-71
2022/02/09 06:38:40;;;;;;;;;20.25;19.00;;;;;5.15;83.86;102603.19;5053432;28;45334;-70
2022/02/09 06:41:07;;;;;;;;;16.75;16.00;;;;;5.18;83.96;102608.44;5053401;28;46152;-70
2022/02/09 06:43:33;;;;;;;;;23.00;19.50;;;;;5.13;84.64;102599.72;5053592;28;45767;-70
2022/02/09 06:45:59;;;;;;;;;17.75;15.25;;;;;5.17;84.16;102604.09;5052623;28;45406;-70
2022/02/09 06:48:24;;;;;;;;;16.00;16.00;;;;;5.19;84.47;102605.84;5051802;28;45411;-70
2022/02/09 06:50:55;;;;;;;;;23.25;18.75;;;;;5.16;84.39;102597.13;5052603;28;46383;-70
2022/02/09 06:55:54;;;;;;;;;18.25;13.00;;;;;5.10;84.77;102589.25;5055115;28;45421;-70
2022/02/09 06:58:23;;;;;;;;;20.50;18.25;;;;;5.18;84.50;102600.63;5053607;28;45470;-70
2022/02/09 07:00:48;;;;;;;;;19.50;16.50;;;;;5.17;84.30;102604.09;5052871;28;46227;-70
2022/02/09 07:03:13;;;;;;;;;20.75;17.75;;;;;5.17;84.34;102599.75;5068677;28;45657;-70
2022/02/09 07:05:40;;;;;;;;;28.50;19.50;;;;;5.19;84.78;102598.03;5052720;28;45360;-70
2022/02/09 07:08:06;;;;;;;;;25.00;20.50;;;;;5.19;84.42;102605.84;5053092;28;45402;-71
2022/02/09 07:10:31;;;;;;;;;19.25;17.25;;;;;5.22;84.51;102611.09;5053740;28;45462;-70
2022/02/09 07:12:57;;;;;;;;;26.00;20.25;;;;;5.27;84.54;102612.84;5050670;28;45560;-72
2022/02/09 07:15:29;;;;;;;;;31.50;23.50;;;;;5.26;84.75;102609.38;5052445;28;45493;-69
2022/02/09 07:17:55;;;;;;;;;23.50;20.75;;;;;5.27;84.27;102598.06;5051179;28;45516;-70
2022/02/09 07:20:29;;;;;;;;;20.00;17.00;;;;;5.28;84.56;102609.41;5052033;28;46545;-70
2022/02/09 07:22:57;;;;;;;;;26.75;21.25;;;;;5.30;84.41;102615.50;5052839;28;45902;-70
2022/02/09 07:25:31;;;;;;;;;23.00;22.25;;;;;5.30;84.83;102613.75;5069443;28;45336;-70
2022/02/09 07:27:57;;;;;;;;;24.25;19.75;;;;;5.37;84.64;102618.16;5052318;28;45538;-71
2022/02/09 07:30:25;;;;;;;;;25.00;20.00;;;;;5.37;84.75;102620.75;5050623;28;46213;-71
2022/02/09 07:32:51;;;;;;;;;19.50;18.25;;;;;5.38;84.48;102614.72;5048893;28;45906;-70
2022/02/09 07:35:17;;;;;;;;;28.50;22.50;;;;;5.46;84.45;102626.06;5050927;28;46032;-70
2022/02/09 07:37:43;;;;;;;;;24.75;19.50;;;;;5.47;84.24;102627.81;5053129;28;45408;-70
2022/02/09 07:40:11;;;;;;;;;29.50;22.50;;;;;5.55;83.93;102624.41;5045597;28;46451;-70
2022/02/09 07:42:43;;;;;;;;;22.25;20.25;;;;;5.60;83.78;102627.94;5048336;28;45664;-70
2022/02/09 07:47:48;;;;;;;;;27.75;22.25;;;;;5.77;84.20;102626.31;5051630;28;45531;-70
2022/02/09 07:50:35;;;;;;;;;36.75;23.25;;;;;6.25;85.65;102624.91;5048796;28;46156;-70
2022/02/09 07:55:36;;;;;;;;;29.75;26.00;;;;;8.45;82.56;102609.34;5050688;28;45420;-70
2022/02/09 07:58:02;;;;;;;;;29.50;24.75;;;;;9.67;81.23;102605.06;5051263;28;45464;-71
2022/02/09 08:00:28;;;;;;;;;30.50;25.25;;;;;11.05;78.69;102592.88;5053561;28;46585;-70
2022/02/09 08:02:54;;;;;;;;;31.50;22.50;;;;;12.34;75.94;102592.34;5054774;28;45529;-70
2022/02/09 08:05:20;;;;;;;;;26.75;21.75;;;;;13.21;72.58;102597.44;5054807;28;45384;-69
2022/02/09 08:07:45;;;;;;;;;25.00;24.00;;;;;13.19;70.57;102594.81;5057158;28;45483;-70
2022/02/09 08:10:49;;;;;;;;;25.75;23.00;;;;;13.04;70.02;102596.03;5054112;28;45675;-70
2022/02/09 08:29:03;;;;;;;;;24.50;20.25;;;;;16.38;63.31;102572.63;5056749;28;45500;-71
2022/02/09 08:31:58;;;;;;;;;28.50;26.50;;;;;17.72;60.62;102571.59;5063547;28;45629;-71
2022/02/09 08:34:23;;;;;;;;;23.50;22.25;;;;;19.00;59.02;102571.03;5060626;28;45889;-71
2022/02/09 08:36:49;;;;;;;;;15.50;14.00;;;;;20.18;55.90;102566.72;5055152;28;45854;-71
2022/02/09 08:39:14;;;;;;;;;27.25;21.75;;;;;21.27;55.51;102565.00;5059608;28;45482;-71
2022/02/09 08:41:40;;;;;;;;;30.00;24.75;;;;;22.28;53.50;102560.66;5060064;28;45609;-71
2022/02/09 08:44:07;;;;;;;;;27.25;25.75;;;;;23.09;51.25;102566.13;5063453;27;45559;-71
2022/02/09 08:46:32;;;;;;;;;30.75;28.00;;;;;23.61;48.93;102559.91;5064769;28;45304;-71
2022/02/09 08:48:58;;;;;;;;;32.75;28.00;;;;;24.19;48.53;102564.72;5071801;27;45457;-69
2022/02/09 08:51:26;;;;;;;;;28.25;26.75;;;;;24.90;47.23;102564.97;5055110;28;45511;-69
2022/02/09 08:53:51;;;;;;;;;35.00;30.25;;;;;25.54;46.93;102561.94;5054621;28;45750;-69
2022/02/09 08:56:16;;;;;;;;;33.50;28.50;;;;;26.20;45.40;102558.44;5055390;28;45344;-69
2022/02/09 08:58:43;;;;;;;;;33.00;30.00;;;;;27.09;44.41;102559.25;5056733;28;45542;-70
2022/02/09 09:01:11;;;;;;;;;36.00;26.75;;;;;27.84;43.57;102555.53;5054193;28;46690;-70
2022/02/09 09:03:58;;;;;;;;;37.00;31.50;;;;;28.63;41.59;102554.84;5054263;28;45615;-69
2022/02/09 09:06:26;;;;;;;;;31.25;26.75;;;;;29.14;40.22;102527.53;5054507;28;45574;-69
2022/02/09 10:31:24;;;;;;;;;18.00;15.75;;;;;33.83;26.06;102525.81;4995163;28;45846;-69
2022/02/09 10:34:16;;;;;;;;;21.75;18.75;;;;;32.50;26.57;102513.47;4995287;28;45545;-70
2022/02/09 10:36:45;;;;;;;;;17.50;16.75;;;;;31.45;27.02;102520.97;4978723;28;45414;-70
2022/02/09 10:39:14;;;;;;;;;17.75;14.75;;;;;30.50;27.08;102522.47;4995049;28;45502;-70
2022/02/09 10:44:52;;;;;;;;;22.25;18.25;;;;;28.90;28.90;102513.53;4980912;28;45637;-70
2022/02/09 10:47:22;;;;;;;;;23.75;19.25;;;;;28.32;29.13;102511.59;4958714;28;45367;-70
2022/02/09 10:50:28;;;;;;;;;23.00;20.50;;;;;27.61;29.75;102508.03;5005452;28;46731;-70
2022/02/09 10:52:57;;;;;;;;;20.75;19.75;;;;;27.03;30.71;102511.19;5051166;28;45593;-70
2022/02/09 10:55:38;;;;;;;;;24.00;19.75;;;;;26.62;31.51;102507.41;5053483;28;45395;-70
2022/02/09 10:58:11;;;;;;;;;29.00;26.50;;;;;26.12;31.07;102506.16;5052864;28;45729;-70
2022/02/09 11:00:43;;;;;;;;;23.00;21.75;;;;;25.76;32.17;102500.91;5051884;28;45587;-70
2022/02/09 11:03:13;;;;;;;;;27.00;23.00;;;;;25.62;31.90;102493.03;5052372;28;45400;-70
2022/02/09 11:05:39;;;;;;;;;25.25;23.00;;;;;25.44;32.58;102487.28;5052835;28;45458;-70
2022/02/09 11:08:05;;;;;;;;;36.50;29.75;;;;;25.39;32.35;102494.00;5051730;28;45553;-70
2022/02/09 11:10:31;;;;;;;;;22.75;21.75;;;;;25.27;33.18;102493.13;5053521;28;45401;-70
2022/02/09 11:12:57;;;;;;;;;22.50;19.00;;;;;25.13;32.61;102486.13;5051513;28;47587;-70
2022/02/09 11:15:22;;;;;;;;;26.50;21.50;;;;;25.03;32.76;102477.00;5052240;28;45485;-71
2022/02/09 11:17:49;;;;;;;;;25.25;20.00;;;;;25.01;33.26;102476.28;5052445;28;45863;-71
2022/02/09 11:20:24;;;;;;;;;24.25;21.25;;;;;24.92;33.22;102476.97;5051843;28;45440;-70
2022/02/09 11:22:49;;;;;;;;;25.75;18.50;;;;;24.76;33.51;102465.66;5050475;28;45352;-73
2022/02/09 11:25:27;;;;;;;;;21.25;20.50;;;;;24.52;32.89;102454.91;5052610;28;45467;-71
2022/02/09 11:28:15;;;;;;;;;20.50;19.75;;;;;24.16;34.06;102472.75;5051736;28;45594;-71
2022/02/09 11:31:18;;;;;;;;;24.50;21.50;;;;;23.66;34.37;102463.84;5051761;28;46593;-71
2022/02/09 11:34:00;;;;;;;;;24.50;20.25;;;;;23.09;34.85;102473.13;5055852;28;45550;-71
2022/02/09 11:36:33;;;;;;;;;24.00;21.50;;;;;22.61;34.75;102458.50;5055865;28;45593;-72
2022/02/09 11:39:14;;;;;;;;;30.00;23.25;;;;;22.05;35.18;102463.03;5055830;28;45424;-71
2022/02/09 11:41:54;;;;;;;;;26.75;22.75;;;;;21.58;36.27;102446.34;5048407;28;46269;-70
2022/02/09 11:50:56;;;;;;;;;23.00;21.25;;;;;20.68;37.10;102445.56;5015644;28;45616;-72
2022/02/09 11:58:49;;;;;;;;;25.75;24.00;;;;;19.89;38.13;102437.53;5008157;28;45533;-71
2022/02/09 12:08:43;;;;;;;;;24.50;21.25;;;;;19.66;38.33;102442.34;5009274;28;48446;-70
2022/02/09 12:10:18;;;;;;;;;25.75;24.75;;;;;18.68;39.75;102427.88;5009461;28;45504;-70
2022/02/09 12:13:05;;;;;;;;;26.50;24.25;;;;;18.60;40.44;102432.72;5009874;28;45482;-70
2022/02/09 12:15:45;;;;;;;;;24.75;20.75;;;;;18.39;40.48;102411.53;5009844;28;46708;-70
2022/02/09 12:18:24;;;;;;;;;26.75;23.50;;;;;18.47;40.78;102421.78;5009675;28;46492;-70
2022/02/09 12:20:55;;;;;;;;;26.50;24.75;;;;;18.45;40.36;102413.91;5010761;28;45562;-70
2022/02/09 12:23:31;;;;;;;;;32.25;26.25;;;;;18.36;40.40;102410.81;5045497;28;45462;-70
2022/02/09 12:25:56;;;;;;;;;21.25;18.00;;;;;18.32;40.61;102407.44;5047974;28;46029;-70
2022/02/09 12:28:25;;;;;;;;;26.75;23.00;;;;;18.28;41.43;102408.53;5053104;28;45713;-71
2022/02/09 12:31:02;;;;;;;;;30.25;22.50;;;;;18.24;41.21;102397.19;5047394;28;45367;-70
2022/02/09 12:33:27;;;;;;;;;24.50;22.25;;;;;18.22;41.28;102398.22;5050058;28;45465;-70
2022/02/09 12:36:29;;;;;;;;;22.50;20.00;;;;;18.21;41.52;102399.13;5049987;28;45746;-70
2022/02/09 12:39:00;;;;;;;;;23.00;23.00;;;;;18.09;41.31;102397.91;5043030;28;45559;-70
2022/02/09 12:41:26;;;;;;;;;28.75;24.00;;;;;18.03;41.66;102397.34;5050453;28;45637;-70
2022/02/09 12:44:04;;;;;;;;;24.50;21.75;;;;;17.98;41.86;102385.13;5052846;28;45525;-70
2022/02/09 12:46:34;;;;;;;;;25.50;21.50;;;;;17.95;42.12;102392.38;5049989;28;46924;-70
2022/02/09 12:49:13;;;;;;;;;26.50;22.50;;;;;17.86;42.25;102385.72;5049703;28;49108;-70
2022/02/09 12:51:40;;;;;;;;;19.75;17.75;;;;;17.77;41.47;102385.28;5048080;28;45506;-70
2022/02/09 12:54:06;;;;;;;;;23.00;21.00;;;;;17.63;41.84;102389.41;5052146;28;45537;-70
2022/02/09 12:56:35;;;;;;;;;14.75;13.25;;;;;17.50;41.68;102379.44;5050515;28;48008;-70
2022/02/09 12:59:33;;;;;;;;;22.00;17.00;;;;;17.30;42.46;102361.72;5049077;28;46016;-70
2022/02/09 13:01:59;;;;;;;;;20.25;19.25;;;;;17.32;42.49;102360.72;5009445;28;45649;-70
2022/02/09 13:04:30;;;;;;;;;21.50;17.25;;;;;17.29;42.45;102366.19;5010762;28;45575;-70
2022/02/09 13:06:56;;;;;;;;;21.50;17.75;;;;;17.16;42.70;102349.06;5010269;28;46374;-70
2022/02/09 13:09:23;;;;;;;;;15.00;13.50;;;;;17.06;42.66;102353.06;5009184;28;45595;-70
2022/02/09 13:11:48;;;;;;;;;21.00;19.25;;;;;17.03;43.14;102358.50;5010881;28;45464;-68
2022/02/09 13:14:24;;;;;;;;;18.50;17.00;;;;;16.95;42.63;102351.72;5013657;28;45456;-67
2022/02/09 14:10:59;;;;;;;;;26.50;19.75;;;;;15.90;45.92;102301.28;5013395;28;45500;-69
2022/02/09 14:18:43;;;;;;;;;14.75;12.50;;;;;15.55;45.81;102283.25;5011740;28;45554;-70
2022/02/09 14:31:34;;;;;;;;;22.00;20.00;;;;;15.43;46.33;102289.88;5012584;28;45420;-68
2022/02/09 14:58:25;;;;;;;;;12.00;12.00;;;;;14.75;48.04;102254.47;5053466;28;45478;-71
2022/02/09 15:01:14;;;;;;;;;17.50;15.25;;;;;14.75;48.47;102250.97;5051547;28;45648;-71
2022/02/09 15:04:00;;;;;;;;;16.50;14.25;;;;;14.70;48.40;102255.56;5050524;28;45380;-71
2022/02/09 15:09:18;;;;;;;;;14.25;12.25;;;;;14.65;48.57;102247.78;5051198;28;45773;-71
2022/02/09 15:15:06;;;;;;;;;22.50;13.50;;;;;14.54;49.19;102245.53;5051250;28;45557;-71
2022/02/09 15:17:30;;;;;;;;;18.25;16.00;;;;;14.54;49.35;102240.22;5045147;28;46253;-71
2022/02/09 15:22:41;;;;;;;;;18.50;15.50;;;;;14.49;48.97;102241.31;5053395;28;45431;-71
2022/02/09 15:25:16;;;;;;;;;16.25;12.25;;;;;14.45;49.52;102240.50;5051650;28;45428;-71
2022/02/09 15:27:42;;;;;;;;;14.50;14.00;;;;;14.43;49.60;102230.91;5051760;28;46305;-72
2022/02/09 15:30:08;;;;;;;;;16.00;14.25;;;;;14.41;49.85;102225.69;5051344;28;45475;-72
2022/02/09 15:32:38;;;;;;;;;16.25;14.75;;;;;14.41;49.60;102232.72;5067907;28;45503;-72
2022/02/09 15:35:19;;;;;;;;;16.00;15.00;;;;;14.30;49.64;102220.78;5068107;28;45546;-72
2022/02/09 15:37:51;;;;;;;;;17.50;14.50;;;;;14.30;49.80;102223.41;5053003;28;46218;-71
2022/02/09 15:40:47;;;;;;;;;15.75;15.50;;;;;14.30;50.08;102226.06;5053326;28;45369;-72
2022/02/09 15:57:47;;;;;;;;;19.00;14.50;;;;;14.14;50.60;102216.91;5052014;28;45363;-72
2022/02/09 16:23:38;;;;;;;;;17.25;13.50;;;;;13.80;52.27;102182.84;5053980;28;45958;-71
2022/02/09 16:45:19;;;;;;;;;17.50;13.00;;;;;13.40;53.21;102175.34;4972223;28;45826;-69
2022/02/09 16:47:55;;;;;;;;;15.75;11.00;;;;;13.37;53.66;102178.09;4970512;28;45800;-72
2022/02/09 16:50:27;;;;;;;;;19.25;14.00;;;;;13.33;53.21;102179.94;4973079;28;45507;-69
2022/02/09 16:53:26;;;;;;;;;18.00;14.25;;;;;13.26;53.38;102165.22;4973944;28;46840;-72
2022/02/09 16:56:06;;;;;;;;;14.00;13.00;;;;;13.21;54.05;102175.94;4974285;28;45633;-69
2022/02/09 17:19:42;;;;;;;;;19.50;14.00;;;;;12.49;56.46;102163.97;5055234;28;45436;-72
2022/02/09 17:22:08;;;;;;;;;19.00;13.50;;;;;12.40;56.59;102159.81;5051454;28;45525;-72
2022/02/09 17:24:34;;;;;;;;;14.75;13.00;;;;;12.27;56.99;102148.75;5046137;28;46260;-73
2022/02/09 17:27:00;;;;;;;;;11.75;10.25;;;;;12.26;57.12;102154.03;5047310;28;45538;-72
2022/02/09 17:29:39;;;;;;;;;22.00;13.75;;;;;12.14;57.30;102155.25;5048117;28;45642;-72
2022/02/09 17:32:13;;;;;;;;;18.25;15.75;;;;;12.02;57.75;102148.53;5050815;28;45406;-72
2022/02/09 17:53:31;;;;;;;;;20.50;17.00;;;;;11.40;59.41;102158.84;5049017;28;45386;-72
2022/02/09 17:56:04;;;;;;;;;21.00;16.75;;;;;11.35;59.83;102171.25;5050550;28;45510;-71
2022/02/09 17:58:40;;;;;;;;;21.00;17.75;;;;;11.26;60.16;102160.91;5049663;28;45863;-72
2022/02/09 18:01:06;;;;;;;;;18.25;16.25;;;;;11.19;60.27;102160.19;5048081;28;45609;-72
2022/02/09 18:03:33;;;;;;;;;22.75;17.75;;;;;11.13;60.22;102154.22;5048079;28;45598;-72
2022/02/09 18:06:12;;;;;;;;;20.00;16.75;;;;;11.10;60.59;102164.78;5051726;28;46310;-72
2022/02/09 18:09:06;;;;;;;;;18.50;16.25;;;;;10.98;61.06;102158.91;5049859;28;45908;-71
2022/02/09 18:30:09;;;;;;;;;20.75;19.25;;;;;10.52;62.85;102169.50;5048299;28;45673;-71
2022/02/09 18:43:20;;;;;;;;;27.25;20.00;;;;;10.28;63.74;102159.47;5047918;28;45436;-71
2022/02/09 18:45:53;;;;;;;;;26.00;23.75;;;;;10.23;63.95;102167.41;5050195;28;45494;-72
2022/02/09 19:04:42;;;;;;;;;32.75;24.25;;;;;9.89;65.27;102148.78;5049794;28;45466;-71
2022/02/09 19:07:19;;;;;;;;;19.50;19.25;;;;;9.86;65.43;102149.69;5050527;28;45567;-70
2022/02/09 19:15:43;;;;;;;;;31.00;23.50;;;;;9.74;65.98;102130.66;5051218;28;45663;-70
2022/02/09 19:18:34;;;;;;;;;31.00;25.00;;;;;9.68;66.03;102129.88;5062640;27;45887;-70
2022/02/09 19:26:19;;;;;;;;;31.25;24.75;;;;;9.65;66.16;102129.03;5048838;28;46372;-70
2022/02/09 19:26:52;;;;;;;;;28.00;23.25;;;;;9.57;66.49;102123.94;5049672;28;45524;-70
2022/02/09 19:48:07;;;;;;;;;30.75;25.75;;;;;9.23;67.16;102118.34;5052901;28;45774;-69
2022/02/09 19:51:39;;;;;;;;;20.25;15.25;;;;;9.19;67.29;102113.16;5049373;28;45563;-70
2022/02/09 19:53:39;;;;;;;;;31.00;26.75;;;;;9.14;67.70;102111.50;5030441;28;46026;-68
2022/02/09 19:56:10;;;;;;;;;36.50;29.00;;;;;9.10;67.75;102101.94;5053854;28;45632;-70
2022/02/09 20:01:21;;;;;;;;;30.50;27.75;;;;;9.05;67.53;102102.91;5058198;28;45624;-73
2022/02/09 20:03:47;;;;;;;;;30.75;26.25;;;;;9.05;68.02;102109.00;5057364;28;45628;-73
2022/02/09 20:06:13;;;;;;;;;29.50;27.75;;;;;9.01;67.64;102106.44;5055072;28;45382;-73
2022/02/09 20:08:39;;;;;;;;;33.75;30.25;;;;;8.97;68.00;102105.63;5054862;27;45681;-72
2022/02/09 20:11:08;;;;;;;;;40.75;32.75;;;;;8.95;68.17;102103.94;5051711;28;45640;-74
2022/02/09 20:13:34;;;;;;;;;37.50;31.00;;;;;8.91;68.36;102097.84;5053372;28;46302;-73
2022/02/09 20:15:59;;;;;;;;;39.50;33.75;;;;;8.88;68.30;102090.03;5052800;28;45995;-73
2022/02/09 20:18:26;;;;;;;;;43.25;34.50;;;;;8.87;68.92;102098.78;5052105;28;45422;-73
2022/02/09 20:20:51;;;;;;;;;33.75;28.50;;;;;8.82;68.86;102091.00;5052126;28;45469;-73
2022/02/09 20:23:16;;;;;;;;;35.00;29.00;;;;;8.75;68.84;102081.47;5050949;28;46248;-72
2022/02/09 20:25:43;;;;;;;;;36.00;29.00;;;;;8.76;68.93;102082.34;5055131;28;45597;-73
2022/02/09 20:28:08;;;;;;;;;33.00;29.25;;;;;8.76;68.93;102087.56;5057403;28;45383;-73
2022/02/09 20:30:40;;;;;;;;;34.50;32.50;;;;;8.74;69.17;102090.22;5047768;28;45368;-73
2022/02/09 20:33:10;;;;;;;;;51.50;36.00;;;;;8.70;69.18;102091.16;5051177;28;45856;-73
2022/02/09 20:35:35;;;;;;;;;45.00;34.25;;;;;8.63;69.31;102073.78;5052410;28;45683;-73
2022/02/09 20:38:01;;;;;;;;;40.00;32.75;;;;;8.66;69.25;102084.22;5053163;28;45851;-73
2022/02/09 20:40:46;;;;;;;;;36.50;33.75;;;;;8.63;69.22;102089.50;5059975;28;45455;-73
2022/02/09 20:43:13;;;;;;;;;43.75;33.50;;;;;8.59;69.23;102086.06;5050928;27;47192;-73
2022/02/09 20:45:46;;;;;;;;;41.25;33.75;;;;;8.57;69.60;102089.59;5047241;28;45469;-73
2022/02/09 20:48:15;;;;;;;;;35.25;32.00;;;;;8.52;69.59;102086.16;5041948;28;45395;-73
2022/02/09 20:50:41;;;;;;;;;39.75;33.75;;;;;8.50;69.76;102082.69;5052246;28;45467;-73
2022/02/09 20:53:08;;;;;;;;;42.00;34.75;;;;;8.44;69.70;102075.75;5051680;28;45735;-73
2022/02/09 20:55:34;;;;;;;;;38.00;32.00;;;;;8.44;70.15;102072.28;5051788;28;45906;-73
2022/02/09 20:58:00;;;;;;;;;48.00;37.50;;;;;8.39;70.32;102087.19;5053472;28;45494;-73
2022/02/09 21:06:50;;;;;;;;;48.75;39.25;;;;;8.34;70.19;102097.69;5051302;28;45472;-73
2022/02/09 21:11:24;;;;;;;;;44.00;37.00;;;;;8.28;70.63;102092.53;5051910;28;45590;-73
2022/02/09 21:14:44;;;;;;;;;44.50;37.25;;;;;8.24;70.80;102101.28;5050114;28;46055;-73
2022/02/09 21:24:40;;;;;;;;;42.50;37.50;;;;;8.13;71.32;102088.31;5050526;28;46063;-73
2022/02/09 21:27:59;;;;;;;;;49.25;39.75;;;;;8.11;71.64;102090.97;5047905;28;46031;-73
2022/02/09 21:54:12;;;;;;;;;49.75;43.00;;;;;7.81;72.18;102081.69;5049944;28;45733;-73
2022/02/09 21:56:49;;;;;;;;;48.25;39.00;;;;;7.79;72.60;102085.22;5049228;28;46112;-73
2022/02/09 21:59:34;;;;;;;;;56.25;43.25;;;;;7.74;72.68;102085.25;5049977;28;46152;-73
2022/02/09 22:21:19;;;;;;;;;59.75;44.00;;;;;7.58;73.35;102079.28;5052801;28;46261;-73
2022/02/09 22:26:43;;;;;;;;;58.50;45.75;;;;;7.58;73.16;102083.66;5038599;28;45493;-73
2022/02/09 22:50:26;;;;;;;;;56.50;45.50;;;;;8.15;73.61;102057.78;5048757;28;46253;-73
2022/02/09 22:55:38;;;;;;;;;56.00;44.00;;;;;8.29;73.95;102047.97;5051797;28;45415;-73
2022/02/09 22:58:04;;;;;;;;;62.00;48.00;;;;;8.32;73.99;102053.19;5048077;28;45464;-73
2022/02/09 23:00:53;;;;;;;;;56.50;45.00;;;;;8.44;73.54;102052.19;5047800;28;46357;-73
2022/02/09 23:03:28;;;;;;;;;62.25;49.25;;;;;8.46;73.50;102039.97;5043466;28;46061;-73
2022/02/09 23:14:11;;;;;;;;;60.25;48.00;;;;;8.72;73.92;102049.19;5050714;28;45912;-73
